createdAt,value
2022-07-29T00:00:00.802Z,1.08
2022-07-29T00:02:28.956Z,1.27
2022-07-29T00:04:56.108Z,1.20
2022-07-29T00:07:22.996Z,1.23
2022-07-29T00:09:50.753Z,1.60
2022-07-29T00:12:25.235Z,1.63
2022-07-29T00:14:56.889Z,1.30
2022-07-29T00:17:25.090Z,1.95
2022-07-29T00:19:52.166Z,1.58
2022-07-29T00:22:19.677Z,1.67
2022-07-29T00:24:48.014Z,1.63
2022-07-29T00:27:14.770Z,1.23
2022-07-29T00:29:41.566Z,1.70
2022-07-29T00:32:08.652Z,1.50
2022-07-29T00:34:53.851Z,1.73
2022-07-29T00:37:20.840Z,1.88
2022-07-29T00:39:47.626Z,2.22
2022-07-29T00:42:14.467Z,1.33
2022-07-29T00:44:42.416Z,2.03
2022-07-29T00:47:13.034Z,2.20
2022-07-29T00:49:41.169Z,2.42
2022-07-29T00:52:09.930Z,2.78
2022-07-29T00:54:44.076Z,3.45
2022-07-29T00:57:11.713Z,3.13
2022-07-29T00:59:38.537Z,3.20
2022-07-29T01:02:05.608Z,3.33
2022-07-29T01:04:33.211Z,2.40
2022-07-29T01:07:03.119Z,3.35
2022-07-29T01:12:20.155Z,2.50
2022-07-29T01:14:49.044Z,2.20
2022-07-29T01:17:39.127Z,2.60
2022-07-29T01:20:21.380Z,2.75
2022-07-29T01:23:25.426Z,2.58
2022-07-29T01:26:25.565Z,2.72
2022-07-29T01:29:04.030Z,2.25
2022-07-29T01:31:41.465Z,2.33
2022-07-29T01:34:30.672Z,2.88
2022-07-29T01:37:21.243Z,3.00
2022-07-29T01:39:51.610Z,3.65
2022-07-29T01:42:18.304Z,3.65
2022-07-29T01:45:20.559Z,2.35
2022-07-29T01:47:59.342Z,2.78
2022-07-29T01:50:50.409Z,3.65
2022-07-29T01:53:30.274Z,3.55
2022-07-29T01:56:07.657Z,4.30
2022-07-29T01:58:37.835Z,3.03
2022-07-29T02:01:06.530Z,3.45
2022-07-29T02:03:36.981Z,3.97
2022-07-29T02:06:07.539Z,3.85
2022-07-29T02:08:35.348Z,3.50
2022-07-29T02:11:04.808Z,3.13
2022-07-29T02:13:34.493Z,3.38
2022-07-29T02:16:03.674Z,3.88
2022-07-29T02:18:32.056Z,3.90
2022-07-29T02:21:01.948Z,3.58
2022-07-29T02:26:00.505Z,3.13
2022-07-29T02:28:29.849Z,2.78
2022-07-29T02:33:27.603Z,3.13
2022-07-29T02:35:56.052Z,3.72
2022-07-29T02:38:44.599Z,3.53
2022-07-29T02:41:18.567Z,2.92
2022-07-29T02:43:49.013Z,3.17
2022-07-29T02:46:28.931Z,2.97
2022-07-29T02:49:16.882Z,2.45
2022-07-29T02:51:54.122Z,2.70
2022-07-29T02:54:51.364Z,2.88
2022-07-29T02:58:00.703Z,3.10
2022-07-29T03:00:32.844Z,3.67
2022-07-29T03:03:04.692Z,2.72
2022-07-29T03:05:32.469Z,2.60
2022-07-29T03:08:04.279Z,3.20
2022-07-29T03:10:32.327Z,2.75
2022-07-29T03:13:00.080Z,2.65
2022-07-29T03:15:28.288Z,2.60
2022-07-29T03:17:56.781Z,2.60
2022-07-29T03:20:23.912Z,2.72
2022-07-29T03:22:51.417Z,3.40
2022-07-29T03:25:19.807Z,4.75
2022-07-29T03:27:47.485Z,3.30
2022-07-29T03:30:21.804Z,2.17
2022-07-29T03:32:52.274Z,3.30
2022-07-29T03:35:23.823Z,4.25
2022-07-29T03:37:50.829Z,4.07
2022-07-29T03:40:23.036Z,9.57
2022-07-29T03:42:51.156Z,8.07
2022-07-29T03:45:20.339Z,8.23
2022-07-29T03:47:59.918Z,7.25
2022-07-29T03:50:30.123Z,4.65
2022-07-29T03:52:57.366Z,3.67
2022-07-29T03:55:25.070Z,3.55
2022-07-29T03:57:52.362Z,3.55
2022-07-29T04:00:20.657Z,3.08
2022-07-29T04:02:50.098Z,3.92
2022-07-29T04:05:18.284Z,3.63
2022-07-29T04:07:51.333Z,4.38
2022-07-29T04:10:26.916Z,4.07
2022-07-29T04:12:59.035Z,3.28
2022-07-29T04:15:26.054Z,3.42
2022-07-29T04:17:58.011Z,3.53
2022-07-29T04:20:24.941Z,3.10
2022-07-29T04:22:51.737Z,2.95
2022-07-29T04:25:18.607Z,2.92
2022-07-29T04:28:04.102Z,2.88
2022-07-29T04:30:32.408Z,2.35
2022-07-29T04:32:59.559Z,2.78
2022-07-29T04:35:26.556Z,2.85
2022-07-29T04:37:53.546Z,2.88
2022-07-29T04:40:20.652Z,3.67
2022-07-29T04:42:48.085Z,3.40
2022-07-29T04:45:16.377Z,3.55
2022-07-29T04:47:43.362Z,4.22
2022-07-29T04:50:11.022Z,4.22
2022-07-29T04:52:38.093Z,3.40
2022-07-29T04:55:06.449Z,3.70
2022-07-29T04:57:33.357Z,3.17
2022-07-29T05:00:00.232Z,3.35
2022-07-29T05:02:27.133Z,2.85
2022-07-29T05:04:54.191Z,2.80
2022-07-29T05:07:21.237Z,3.53
2022-07-29T05:09:48.292Z,3.28
2022-07-29T05:12:15.458Z,2.45
2022-07-29T05:14:42.302Z,3.15
2022-07-29T05:17:09.215Z,3.05
2022-07-29T05:19:39.780Z,3.30
2022-07-29T05:22:06.851Z,2.95
2022-07-29T05:24:33.798Z,2.53
2022-07-29T05:27:00.748Z,2.97
2022-07-29T05:29:44.414Z,3.15
2022-07-29T05:32:13.079Z,3.30
2022-07-29T05:34:50.845Z,3.72
2022-07-29T05:37:22.199Z,3.50
2022-07-29T05:39:56.274Z,2.97
2022-07-29T05:42:24.180Z,3.72
2022-07-29T05:44:50.991Z,4.05
2022-07-29T05:47:17.924Z,3.92
2022-07-29T05:49:44.841Z,4.57
2022-07-29T05:52:11.735Z,2.95
2022-07-29T05:54:38.762Z,3.25
2022-07-29T05:57:06.520Z,4.38
2022-07-29T05:59:37.577Z,8.50
2022-07-29T06:02:06.381Z,5.97
2022-07-29T06:04:34.652Z,7.93
2022-07-29T06:07:02.966Z,8.73
2022-07-29T06:09:30.238Z,6.78
2022-07-29T06:11:57.221Z,7.15
2022-07-29T06:14:23.967Z,6.00
2022-07-29T06:16:50.925Z,6.78
2022-07-29T06:19:17.776Z,6.75
2022-07-29T06:21:45.005Z,5.55
2022-07-29T06:24:14.063Z,5.95
2022-07-29T06:26:42.011Z,4.20
2022-07-29T06:29:11.696Z,4.07
2022-07-29T06:31:39.278Z,3.80
2022-07-29T06:34:06.193Z,4.40
2022-07-29T06:36:36.720Z,3.88
2022-07-29T06:39:08.384Z,4.50
2022-07-29T06:41:35.174Z,3.78
2022-07-29T06:44:02.456Z,3.72
2022-07-29T06:46:30.296Z,3.40
2022-07-29T06:48:57.301Z,3.72
2022-07-29T06:51:24.404Z,3.85
2022-07-29T06:53:59.851Z,6.80
2022-07-29T06:56:39.284Z,16.40
2022-07-29T06:59:08.349Z,8.23
2022-07-29T07:01:36.181Z,8.43
2022-07-29T07:04:03.262Z,8.07
2022-07-29T07:06:30.221Z,4.28
2022-07-29T07:08:57.002Z,4.05
2022-07-29T07:11:23.948Z,3.88
2022-07-29T07:13:51.012Z,3.33
2022-07-29T07:16:17.946Z,3.60
2022-07-29T07:18:46.339Z,3.25
2022-07-29T07:21:19.326Z,3.47
2022-07-29T07:23:47.203Z,3.70
2022-07-29T07:26:14.136Z,3.80
2022-07-29T07:28:41.020Z,3.25
2022-07-29T07:31:07.913Z,4.95
2022-07-29T07:33:34.781Z,7.45
2022-07-29T07:36:01.589Z,4.40
2022-07-29T07:38:28.406Z,3.75
2022-07-29T07:40:55.503Z,3.75
2022-07-29T07:43:22.960Z,4.53
2022-07-29T07:45:49.908Z,5.13
2022-07-29T07:48:16.844Z,3.60
2022-07-29T07:50:44.885Z,2.95
2022-07-29T07:53:11.855Z,3.00
2022-07-29T07:56:09.308Z,3.40
2022-07-29T07:58:32.196Z,2.22
2022-07-29T08:00:59.219Z,2.53
2022-07-29T08:03:26.039Z,2.50
2022-07-29T08:05:53.027Z,2.35
2022-07-29T08:08:20.113Z,2.80
2022-07-29T08:10:53.610Z,2.38
2022-07-29T08:13:22.259Z,2.63
2022-07-29T08:15:58.586Z,2.08
2022-07-29T08:18:26.863Z,2.58
2022-07-29T08:20:53.711Z,4.35
2022-07-29T08:23:21.678Z,2.38
2022-07-29T08:25:50.125Z,2.33
2022-07-29T08:28:18.482Z,2.63
2022-07-29T08:30:45.685Z,3.85
2022-07-29T08:33:12.747Z,2.80
2022-07-29T08:35:40.924Z,4.35
2022-07-29T08:38:07.720Z,3.95
2022-07-29T08:40:34.667Z,3.50
2022-07-29T08:43:09.112Z,3.97
2022-07-29T08:45:48.101Z,4.45
2022-07-29T08:48:17.748Z,3.80
2022-07-29T08:50:46.416Z,3.53
2022-07-29T08:53:15.722Z,4.05
2022-07-29T08:55:49.885Z,2.45
2022-07-29T08:58:17.630Z,3.22
2022-07-29T09:00:46.942Z,2.75
2022-07-29T09:03:19.190Z,2.40
2022-07-29T09:05:49.571Z,2.65
2022-07-29T09:08:17.441Z,2.90
2022-07-29T09:10:45.999Z,3.22
2022-07-29T09:13:12.986Z,2.83
2022-07-29T09:15:39.766Z,2.63
2022-07-29T09:18:06.633Z,2.40
2022-07-29T09:20:52.113Z,2.30
2022-07-29T09:23:24.248Z,2.80
2022-07-29T09:25:51.690Z,3.00
2022-07-29T09:28:19.340Z,2.22
2022-07-29T09:30:59.314Z,2.17
2022-07-29T09:33:35.796Z,2.30
2022-07-29T09:36:06.434Z,2.58
2022-07-29T09:38:33.797Z,2.63
2022-07-29T09:41:05.812Z,2.13
2022-07-29T09:43:33.537Z,2.38
2022-07-29T09:46:14.812Z,2.30
2022-07-29T09:48:42.037Z,2.45
2022-07-29T09:51:26.888Z,2.35
2022-07-29T09:54:24.518Z,2.95
2022-07-29T09:56:51.359Z,2.47
2022-07-29T09:59:18.659Z,2.25
2022-07-29T10:01:45.732Z,2.45
2022-07-29T10:04:12.812Z,2.30
2022-07-29T10:07:04.770Z,3.60
2022-07-29T10:09:32.960Z,2.28
2022-07-29T10:12:14.953Z,2.17
2022-07-29T10:14:42.962Z,2.80
2022-07-29T10:17:11.417Z,2.22
2022-07-29T10:19:39.516Z,2.45
2022-07-29T10:22:09.682Z,2.90
2022-07-29T10:24:38.353Z,2.17
2022-07-29T10:27:08.309Z,2.55
2022-07-29T10:29:35.570Z,2.30
2022-07-29T10:32:21.437Z,2.50
2022-07-29T10:34:58.990Z,2.45
2022-07-29T10:37:36.139Z,2.78
2022-07-29T10:40:43.847Z,2.88
2022-07-29T10:43:34.115Z,2.70
2022-07-29T10:46:02.217Z,2.08
2022-07-29T10:48:29.336Z,2.25
2022-07-29T10:51:00.204Z,3.97
2022-07-29T10:53:50.625Z,3.17
2022-07-29T10:56:32.343Z,2.47
2022-07-29T10:59:21.461Z,2.38
2022-07-29T11:01:53.417Z,2.30
2022-07-29T11:05:00.415Z,2.55
2022-07-29T11:07:28.133Z,1.85
2022-07-29T11:12:43.644Z,2.00
2022-07-29T11:15:24.999Z,2.53
2022-07-29T11:17:54.845Z,2.47
2022-07-29T11:20:42.477Z,2.15
2022-07-29T11:23:20.616Z,1.90
2022-07-29T11:26:23.391Z,2.50
2022-07-29T11:28:56.366Z,1.90
2022-07-29T11:31:52.714Z,1.98
2022-07-29T11:34:34.822Z,2.03
2022-07-29T11:37:10.765Z,2.22
2022-07-29T11:40:10.223Z,2.13
2022-07-29T11:42:37.150Z,2.03
2022-07-29T11:45:43.056Z,2.03
2022-07-29T11:48:29.059Z,1.77
2022-07-29T11:50:49.248Z,2.05
2022-07-29T11:53:17.289Z,1.90
2022-07-29T11:55:51.070Z,2.20
2022-07-29T11:58:26.570Z,2.00
2022-07-29T12:00:55.503Z,1.90
2022-07-29T12:03:33.381Z,2.25
2022-07-29T12:06:14.195Z,1.60
2022-07-29T12:08:47.549Z,2.35
2022-07-29T12:11:22.741Z,2.33
2022-07-29T12:13:52.356Z,2.10
2022-07-29T12:16:27.661Z,1.90
2022-07-29T12:19:02.311Z,1.88
2022-07-29T12:21:31.204Z,1.65
2022-07-29T12:24:05.962Z,2.00
2022-07-29T12:26:36.100Z,1.70
2022-07-29T12:29:03.549Z,1.58
2022-07-29T12:31:44.011Z,1.80
2022-07-29T12:34:13.545Z,1.70
2022-07-29T12:36:41.520Z,2.20
2022-07-29T12:39:10.264Z,2.10
2022-07-29T12:44:04.485Z,2.00
2022-07-29T12:46:31.503Z,1.90
2022-07-29T12:48:59.796Z,1.70
2022-07-29T12:51:44.525Z,1.77
2022-07-29T12:54:14.635Z,2.03
2022-07-29T12:56:44.402Z,2.30
2022-07-29T12:59:22.824Z,1.80
2022-07-29T13:01:52.506Z,1.65
2022-07-29T13:04:31.245Z,1.77
2022-07-29T13:09:46.735Z,1.90
2022-07-29T13:12:14.876Z,2.13
2022-07-29T13:14:43.018Z,2.35
2022-07-29T13:17:12.670Z,2.17
2022-07-29T13:19:44.718Z,2.63
2022-07-29T13:22:16.996Z,1.85
2022-07-29T13:24:57.262Z,2.40
2022-07-29T13:27:29.660Z,1.77
2022-07-29T13:29:58.775Z,2.17
2022-07-29T13:32:28.997Z,2.00
2022-07-29T13:35:01.610Z,1.65
2022-07-29T13:37:35.218Z,1.90
2022-07-29T13:40:04.517Z,2.53
2022-07-29T13:42:31.627Z,2.20
2022-07-29T13:44:58.765Z,2.58
2022-07-29T13:47:32.185Z,2.50
2022-07-29T13:49:59.843Z,2.10
2022-07-29T13:52:26.722Z,2.58
2022-07-29T13:54:53.653Z,2.40
2022-07-29T13:57:20.709Z,2.08
2022-07-29T13:59:51.995Z,2.72
2022-07-29T14:02:21.116Z,2.60
2022-07-29T14:04:52.648Z,2.35
2022-07-29T14:07:19.510Z,2.00
2022-07-29T14:09:46.270Z,2.42
2022-07-29T14:12:13.357Z,2.53
2022-07-29T14:14:40.140Z,2.15
2022-07-29T14:17:09.727Z,2.50
2022-07-29T14:19:36.943Z,2.22
2022-07-29T14:22:09.093Z,2.40
2022-07-29T14:24:39.454Z,1.67
2022-07-29T14:27:07.377Z,2.33
2022-07-29T14:29:37.440Z,2.10
2022-07-29T14:32:09.282Z,1.92
2022-07-29T14:34:39.313Z,1.63
2022-07-29T14:37:06.899Z,2.10
2022-07-29T14:39:38.182Z,2.08
2022-07-29T14:42:09.508Z,2.42
2022-07-29T14:44:38.705Z,2.13
2022-07-29T14:47:07.411Z,2.40
2022-07-29T14:52:02.371Z,2.47
2022-07-29T14:54:29.381Z,2.38
2022-07-29T14:56:58.453Z,2.67
2022-07-29T15:01:52.896Z,2.30
2022-07-29T15:04:20.306Z,3.45
2022-07-29T15:06:47.147Z,2.47
2022-07-29T15:09:14.639Z,2.67
2022-07-29T15:11:41.595Z,2.25
2022-07-29T15:14:08.649Z,2.22
2022-07-29T15:16:39.665Z,2.10
2022-07-29T15:19:10.914Z,2.05
2022-07-29T15:21:41.618Z,2.15
2022-07-29T15:24:18.774Z,1.92
2022-07-29T15:26:46.230Z,2.72
2022-07-29T15:29:13.282Z,2.55
2022-07-29T15:31:40.680Z,2.42
2022-07-29T15:34:08.264Z,2.13
2022-07-29T15:36:51.564Z,2.42
2022-07-29T15:39:19.710Z,2.47
2022-07-29T15:41:47.011Z,3.30
2022-07-29T15:44:14.178Z,2.03
2022-07-29T15:47:00.569Z,2.10
2022-07-29T15:49:47.037Z,2.10
2022-07-29T15:52:26.076Z,2.00
2022-07-29T15:54:56.942Z,1.80
2022-07-29T15:57:25.120Z,2.10
2022-07-29T15:59:52.385Z,2.40
2022-07-29T16:02:19.670Z,2.30
2022-07-29T16:04:46.707Z,2.30
2022-07-29T16:07:14.268Z,2.03
2022-07-29T16:09:41.876Z,2.20
2022-07-29T16:12:14.664Z,2.83
2022-07-29T16:14:42.202Z,2.33
2022-07-29T16:17:09.125Z,2.78
2022-07-29T16:19:41.116Z,3.15
2022-07-29T16:22:07.860Z,3.10
2022-07-29T16:24:34.773Z,2.65
2022-07-29T16:27:02.009Z,2.50
2022-07-29T16:29:29.259Z,1.90
2022-07-29T16:31:56.206Z,2.97
2022-07-29T16:34:23.057Z,3.40
2022-07-29T16:36:49.810Z,2.83
2022-07-29T16:39:16.854Z,2.13
2022-07-29T16:41:43.689Z,2.25
2022-07-29T16:44:10.457Z,2.45
2022-07-29T16:46:37.580Z,2.55
2022-07-29T16:49:07.043Z,2.20
2022-07-29T16:51:34.014Z,2.50
2022-07-29T16:54:00.901Z,2.80
2022-07-29T16:56:27.762Z,2.10
2022-07-29T16:58:54.534Z,1.80
2022-07-29T17:01:21.530Z,2.22
2022-07-29T17:04:06.750Z,2.00
2022-07-29T17:06:35.449Z,2.05
2022-07-29T17:09:06.929Z,2.00
2022-07-29T17:11:52.477Z,2.80
2022-07-29T17:14:24.168Z,2.40
2022-07-29T17:17:01.245Z,2.15
2022-07-29T17:19:34.240Z,1.83
2022-07-29T17:22:10.503Z,2.95
2022-07-29T17:24:41.363Z,2.28
2022-07-29T17:27:09.463Z,2.33
2022-07-29T17:29:36.389Z,2.30
2022-07-29T17:32:03.843Z,2.33
2022-07-29T17:34:34.119Z,2.70
2022-07-29T17:37:01.345Z,2.20
2022-07-29T17:39:28.504Z,2.45
2022-07-29T17:41:55.306Z,3.00
2022-07-29T17:44:22.124Z,3.78
2022-07-29T17:46:49.035Z,3.38
2022-07-29T17:49:15.888Z,2.88
2022-07-29T17:51:42.708Z,2.83
2022-07-29T17:54:09.606Z,2.55
2022-07-29T17:56:36.597Z,2.40
2022-07-29T17:59:06.703Z,2.53
2022-07-29T18:01:34.556Z,2.20
2022-07-29T18:04:02.884Z,2.33
2022-07-29T18:06:29.858Z,2.53
2022-07-29T18:08:56.773Z,2.97
2022-07-29T18:11:23.824Z,3.88
2022-07-29T18:13:50.592Z,2.95
2022-07-29T18:16:18.668Z,2.47
2022-07-29T18:18:46.000Z,2.05
2022-07-29T18:21:13.074Z,3.08
2022-07-29T18:23:40.326Z,3.15
2022-07-29T18:26:07.249Z,3.08
2022-07-29T18:28:34.241Z,2.40
2022-07-29T18:31:01.463Z,2.53
2022-07-29T18:33:28.306Z,2.53
2022-07-29T18:36:04.233Z,2.28
2022-07-29T18:38:38.455Z,3.40
2022-07-29T18:41:05.209Z,2.85
2022-07-29T18:43:31.940Z,3.05
2022-07-29T18:45:58.827Z,6.68
2022-07-29T18:48:25.679Z,4.43
2022-07-29T18:50:52.522Z,2.42
2022-07-29T18:53:19.479Z,3.95
2022-07-29T18:55:46.453Z,3.38
2022-07-29T18:58:13.245Z,2.85
2022-07-29T19:00:40.155Z,2.65
2022-07-29T19:03:08.531Z,3.05
2022-07-29T19:05:35.684Z,3.33
2022-07-29T19:08:02.554Z,3.45
2022-07-29T19:10:29.666Z,3.45
2022-07-29T19:12:57.046Z,2.80
2022-07-29T19:15:24.022Z,3.05
2022-07-29T19:17:50.854Z,3.42
2022-07-29T19:20:17.803Z,2.97
2022-07-29T19:22:45.022Z,2.88
2022-07-29T19:25:12.002Z,3.15
2022-07-29T19:27:38.863Z,3.67
2022-07-29T19:30:07.960Z,2.50
2022-07-29T19:32:34.805Z,3.15
2022-07-29T19:35:20.413Z,3.75
2022-07-29T19:37:47.246Z,3.10
2022-07-29T19:40:14.057Z,2.88
2022-07-29T19:42:40.997Z,2.78
2022-07-29T19:45:08.448Z,3.50
2022-07-29T19:47:35.332Z,2.78
2022-07-29T19:50:02.622Z,2.80
2022-07-29T19:52:29.426Z,3.28
2022-07-29T19:54:56.610Z,2.63
2022-07-29T19:57:24.213Z,3.00
2022-07-29T19:59:51.117Z,3.65
2022-07-29T20:02:17.965Z,2.60
2022-07-29T20:04:45.151Z,3.10
2022-07-29T20:07:13.176Z,3.50
2022-07-29T20:09:41.019Z,3.67
2022-07-29T20:12:11.390Z,3.70
2022-07-29T20:14:38.692Z,3.67
2022-07-29T20:17:05.546Z,7.85
2022-07-29T20:19:33.104Z,4.63
2022-07-29T20:22:00.964Z,6.43
2022-07-29T20:24:27.727Z,5.38
2022-07-29T20:26:54.618Z,4.07
2022-07-29T20:29:21.433Z,5.93
2022-07-29T20:31:52.282Z,3.20
2022-07-29T20:34:23.636Z,3.15
2022-07-29T20:36:50.611Z,5.43
2022-07-29T20:39:17.539Z,10.00
2022-07-29T20:41:44.744Z,7.15
2022-07-29T20:44:11.506Z,4.95
2022-07-29T20:46:39.575Z,6.70
2022-07-29T20:49:07.087Z,3.92
2022-07-29T20:51:43.477Z,3.42
2022-07-29T20:54:11.190Z,4.00
2022-07-29T20:56:38.354Z,3.35
2022-07-29T20:59:05.189Z,4.85
2022-07-29T21:01:32.087Z,3.55
2022-07-29T21:04:00.385Z,4.13
2022-07-29T21:06:27.372Z,3.60
2022-07-29T21:08:56.047Z,4.40
2022-07-29T21:11:44.038Z,3.38
2022-07-29T21:14:09.729Z,3.22
2022-07-29T21:16:36.689Z,3.15
2022-07-29T21:19:03.708Z,4.50
2022-07-29T21:21:30.718Z,3.53
2022-07-29T21:23:57.602Z,4.40
2022-07-29T21:26:24.430Z,3.13
2022-07-29T21:28:51.233Z,4.28
2022-07-29T21:31:18.135Z,3.70
2022-07-29T21:33:46.506Z,4.53
2022-07-29T21:36:47.710Z,4.30
2022-07-29T21:39:07.244Z,4.22
2022-07-29T21:41:34.668Z,3.78
2022-07-29T21:44:01.612Z,3.90
2022-07-29T21:46:28.573Z,3.45
2022-07-29T21:48:55.549Z,6.40
2022-07-29T21:51:22.453Z,3.67
2022-07-29T21:53:50.650Z,3.47
2022-07-29T21:56:20.128Z,3.53
2022-07-29T21:58:49.393Z,3.30
2022-07-29T22:01:16.230Z,4.55
2022-07-29T22:03:43.218Z,3.83
2022-07-29T22:06:11.323Z,3.30
2022-07-29T22:08:45.904Z,3.70
2022-07-29T22:11:13.737Z,3.83
2022-07-29T22:13:40.657Z,3.50
2022-07-29T22:16:09.722Z,3.67
2022-07-29T22:18:36.458Z,3.90
2022-07-29T22:21:03.303Z,4.40
2022-07-29T22:23:30.118Z,3.22
2022-07-29T22:25:57.369Z,3.85
2022-07-29T22:28:24.184Z,4.28
2022-07-29T22:30:51.143Z,3.60
2022-07-29T22:33:18.299Z,4.70
2022-07-29T22:35:48.998Z,4.03
2022-07-29T22:38:19.488Z,4.20
2022-07-29T22:40:48.720Z,4.25
2022-07-29T22:43:17.300Z,5.18
2022-07-29T22:45:44.460Z,4.57
2022-07-29T22:48:11.579Z,4.93
2022-07-29T22:50:39.125Z,5.13
2022-07-29T22:53:06.089Z,5.72
2022-07-29T22:55:33.143Z,8.98
2022-07-29T22:57:59.897Z,10.27
2022-07-29T23:00:27.034Z,8.50
2022-07-29T23:02:53.769Z,7.95
2022-07-29T23:05:20.557Z,6.55
2022-07-29T23:07:47.623Z,6.30
2022-07-29T23:10:14.583Z,5.18
2022-07-29T23:12:41.325Z,5.45
2022-07-29T23:15:08.387Z,5.25
2022-07-29T23:17:36.330Z,5.25
2022-07-29T23:20:06.482Z,5.82
2022-07-29T23:25:07.708Z,5.00
2022-07-29T23:27:34.600Z,5.93
2022-07-29T23:30:01.440Z,10.02
2022-07-29T23:32:28.228Z,6.82
2022-07-29T23:34:55.088Z,5.47
2022-07-29T23:37:22.142Z,5.82
2022-07-29T23:39:48.963Z,7.15
2022-07-29T23:42:15.841Z,5.53
2022-07-29T23:44:43.078Z,5.60
2022-07-29T23:47:09.977Z,15.13
2022-07-29T23:49:36.944Z,8.50
2022-07-29T23:52:03.843Z,5.22
2022-07-29T23:54:30.695Z,6.40
2022-07-29T23:56:58.334Z,5.60
2022-07-29T23:59:25.503Z,5.15
